createdAt,value
2023-06-09T00:02:05.212Z,18
2023-06-09T00:04:35.901Z,22
2023-06-09T00:07:06.312Z,20
2023-06-09T00:09:37.200Z,20
2023-06-09T00:12:07.695Z,20
2023-06-09T00:14:38.594Z,24
2023-06-09T00:17:07.704Z,23
2023-06-09T00:19:38.353Z,24
2023-06-09T00:22:09.959Z,24
2023-06-09T00:24:40.982Z,24
2023-06-09T00:27:12.301Z,26
2023-06-09T00:29:43.748Z,20
2023-06-09T00:32:15.863Z,21
2023-06-09T00:34:46.826Z,23
2023-06-09T00:37:16.116Z,23
2023-06-09T00:39:46.833Z,24
2023-06-09T00:42:17.418Z,28
2023-06-09T00:44:48.552Z,24
2023-06-09T00:47:19.468Z,27
2023-06-09T00:49:50.176Z,24
2023-06-09T00:52:20.918Z,25
2023-06-09T00:54:52.094Z,23
2023-06-09T00:57:23.006Z,26
2023-06-09T00:59:53.646Z,27
2023-06-09T01:02:26.223Z,27
2023-06-09T01:04:57.337Z,34
2023-06-09T01:07:27.577Z,36
2023-06-09T01:09:58.310Z,32
2023-06-09T01:12:30.704Z,37
2023-06-09T01:15:01.816Z,30
2023-06-09T01:17:32.870Z,28
2023-06-09T01:20:03.867Z,32
2023-06-09T01:22:35.037Z,28
2023-06-09T01:25:05.973Z,28
2023-06-09T01:27:36.867Z,29
2023-06-09T01:30:07.601Z,25
2023-06-09T01:32:38.694Z,28
2023-06-09T01:35:09.228Z,24
2023-06-09T01:37:39.866Z,28
2023-06-09T01:40:11.079Z,25
2023-06-09T01:42:41.808Z,31
2023-06-09T01:45:12.905Z,24
2023-06-09T01:47:43.676Z,28
2023-06-09T01:50:14.667Z,27
2023-06-09T01:52:45.848Z,29
2023-06-09T01:55:16.742Z,28
2023-06-09T01:57:47.325Z,29
2023-06-09T02:00:18.332Z,32
2023-06-09T02:02:50.113Z,32
2023-06-09T02:05:20.980Z,35
2023-06-09T02:07:52.109Z,29
2023-06-09T02:10:22.897Z,31
2023-06-09T02:12:53.898Z,33
2023-06-09T02:15:24.964Z,33
2023-06-09T02:17:56.007Z,36
2023-06-09T02:20:26.752Z,30
2023-06-09T02:22:58.204Z,32
2023-06-09T02:25:28.885Z,36
2023-06-09T02:27:59.841Z,40
2023-06-09T02:30:30.789Z,32
2023-06-09T02:33:01.692Z,40
2023-06-09T02:35:32.513Z,35
2023-06-09T02:38:03.232Z,35
2023-06-09T02:40:34.334Z,29
2023-06-09T02:43:05.103Z,30
2023-06-09T02:45:35.875Z,25
2023-06-09T02:48:06.696Z,32
2023-06-09T02:50:37.489Z,31
2023-06-09T02:53:08.441Z,32
2023-06-09T02:55:39.384Z,27
2023-06-09T02:58:10.074Z,35
2023-06-09T03:00:41.042Z,24
2023-06-09T03:03:11.842Z,24
2023-06-09T03:05:42.933Z,27
2023-06-09T03:08:14.691Z,25
2023-06-09T03:10:46.026Z,21
2023-06-09T03:13:16.771Z,24
2023-06-09T03:15:47.480Z,28
2023-06-09T03:18:18.342Z,27
2023-06-09T03:20:49.229Z,25
2023-06-09T03:23:20.191Z,25
2023-06-09T03:25:51.226Z,24
2023-06-09T03:28:22.142Z,28
2023-06-09T03:30:53.070Z,31
2023-06-09T03:33:23.935Z,29
2023-06-09T03:35:54.279Z,28
2023-06-09T03:38:24.948Z,28
2023-06-09T03:40:56.284Z,29
2023-06-09T03:43:27.225Z,25
2023-06-09T03:45:58.323Z,28
2023-06-09T03:48:29.949Z,28
2023-06-09T03:51:01.036Z,28
2023-06-09T03:53:30.318Z,28
2023-06-09T03:56:01.200Z,41
2023-06-09T03:58:31.895Z,27
2023-06-09T04:01:03.040Z,32
2023-06-09T04:03:33.963Z,27
2023-06-09T04:06:05.064Z,29
2023-06-09T04:08:34.517Z,35
2023-06-09T04:11:05.237Z,29
2023-06-09T04:13:35.970Z,32
2023-06-09T04:16:07.106Z,41
2023-06-09T04:18:37.991Z,44
2023-06-09T04:21:08.330Z,40
2023-06-09T04:23:39.352Z,40
2023-06-09T04:26:10.159Z,43
2023-06-09T04:28:41.271Z,47
2023-06-09T04:31:12.386Z,48
2023-06-09T04:33:43.427Z,51
2023-06-09T04:36:14.207Z,46
2023-06-09T04:38:44.697Z,49
2023-06-09T04:41:15.990Z,38
2023-06-09T04:43:46.878Z,41
2023-06-09T04:46:18.082Z,36
2023-06-09T04:48:49.844Z,32
2023-06-09T04:51:20.743Z,40
2023-06-09T04:53:51.649Z,32
2023-06-09T04:56:22.777Z,40
2023-06-09T04:58:55.524Z,45
2023-06-09T05:01:26.470Z,43
2023-06-09T05:03:55.335Z,48
2023-06-09T05:06:26.279Z,44
2023-06-09T05:08:57.050Z,43
2023-06-09T05:11:27.671Z,48
2023-06-09T05:13:58.463Z,44
2023-06-09T05:16:29.578Z,44
2023-06-09T05:19:01.028Z,48
2023-06-09T05:21:32.147Z,44
2023-06-09T05:24:03.109Z,44
2023-06-09T05:29:12.485Z,47
2023-06-09T05:31:43.506Z,44
2023-06-09T05:34:14.206Z,48
2023-06-09T05:36:44.722Z,43
2023-06-09T05:39:15.364Z,40
2023-06-09T05:41:45.910Z,42
2023-06-09T05:44:16.019Z,48
2023-06-09T05:46:46.539Z,44
2023-06-09T05:49:16.916Z,45
2023-06-09T05:51:47.704Z,47
2023-06-09T05:54:18.810Z,49
2023-06-09T05:56:52.109Z,44
2023-06-09T05:59:22.615Z,44
2023-06-09T06:01:53.259Z,46
2023-06-09T06:04:23.936Z,48
2023-06-09T06:06:58.808Z,46
2023-06-09T06:09:30.241Z,44
2023-06-09T06:12:00.924Z,49
2023-06-09T06:14:31.595Z,48
2023-06-09T06:17:04.613Z,45
2023-06-09T06:19:37.457Z,48
2023-06-09T06:22:08.083Z,52
2023-06-09T06:24:39.228Z,52
2023-06-09T06:27:09.955Z,52
2023-06-09T06:29:40.562Z,48
2023-06-09T06:32:13.401Z,52
2023-06-09T06:34:43.804Z,55
2023-06-09T06:37:14.634Z,54
2023-06-09T06:39:46.024Z,52
2023-06-09T06:42:16.548Z,60
2023-06-09T06:44:47.015Z,57
2023-06-09T06:47:17.823Z,56
2023-06-09T06:49:48.383Z,56
2023-06-09T06:52:19.267Z,58
2023-06-09T06:54:49.976Z,57
2023-06-09T06:57:20.766Z,61
2023-06-09T06:59:51.249Z,61
2023-06-09T07:02:22.321Z,58
2023-06-09T07:04:51.326Z,62
2023-06-09T07:07:22.214Z,57
2023-06-09T07:09:52.882Z,61
2023-06-09T07:12:23.849Z,64
2023-06-09T07:14:53.362Z,61
2023-06-09T07:17:23.822Z,67
2023-06-09T07:19:56.064Z,69
2023-06-09T07:22:26.698Z,60
2023-06-09T07:24:59.185Z,64
2023-06-09T07:27:28.235Z,64
2023-06-09T07:30:00.770Z,63
2023-06-09T07:32:31.900Z,60
2023-06-09T07:35:04.606Z,67
2023-06-09T07:37:35.719Z,64
2023-06-09T07:40:17.764Z,64
2023-06-09T07:42:37.439Z,64
2023-06-09T07:45:10.229Z,64
2023-06-09T07:47:40.895Z,61
2023-06-09T07:50:11.636Z,64
2023-06-09T07:52:42.813Z,64
2023-06-09T07:55:15.550Z,64
2023-06-09T07:57:45.090Z,65
2023-06-09T08:00:15.727Z,68
2023-06-09T08:02:46.220Z,72
2023-06-09T08:05:20.127Z,70
2023-06-09T08:07:50.543Z,72
2023-06-09T08:10:21.021Z,68
2023-06-09T08:12:52.218Z,70
2023-06-09T08:15:22.997Z,71
2023-06-09T08:17:53.765Z,67
2023-06-09T08:20:25.040Z,65
2023-06-09T08:22:58.332Z,68
2023-06-09T08:25:29.296Z,73
2023-06-09T08:28:00.413Z,71
2023-06-09T08:30:40.052Z,68
2023-06-09T08:33:11.421Z,72
2023-06-09T08:35:42.759Z,72
2023-06-09T08:38:13.186Z,71
2023-06-09T08:40:53.154Z,72
2023-06-09T08:43:26.847Z,69
2023-06-09T08:45:58.739Z,72
2023-06-09T08:48:29.588Z,72
2023-06-09T08:51:02.203Z,68
2023-06-09T08:53:34.473Z,74
2023-06-09T08:56:05.357Z,76
2023-06-09T08:58:37.306Z,72
2023-06-09T09:01:08.736Z,72
2023-06-09T09:03:39.047Z,71
2023-06-09T09:06:15.743Z,70
2023-06-09T09:08:47.392Z,76
2023-06-09T09:11:18.466Z,68
2023-06-09T09:13:49.647Z,71
2023-06-09T09:16:23.004Z,70
2023-06-09T09:18:58.491Z,72
2023-06-09T09:21:30.650Z,68
2023-06-09T09:24:05.859Z,69
2023-06-09T09:26:42.064Z,68
2023-06-09T09:29:10.389Z,69
2023-06-09T09:31:44.316Z,72
2023-06-09T09:34:17.726Z,73
2023-06-09T09:36:48.694Z,72
2023-06-09T09:39:20.919Z,72
2023-06-09T09:41:52.665Z,72
2023-06-09T09:44:23.165Z,71
2023-06-09T09:46:56.031Z,73
2023-06-09T09:49:28.960Z,78
2023-06-09T09:51:59.639Z,77
2023-06-09T09:54:33.018Z,74
2023-06-09T09:57:03.823Z,81
2023-06-09T09:59:35.066Z,87
2023-06-09T10:02:06.731Z,108
2023-06-09T10:04:38.843Z,101
2023-06-09T10:07:10.043Z,110
2023-06-09T10:09:45.080Z,82
2023-06-09T10:12:18.767Z,93
2023-06-09T10:14:49.998Z,100
2023-06-09T10:17:21.369Z,76
2023-06-09T10:19:52.115Z,84
2023-06-09T10:22:23.268Z,92
2023-06-09T10:24:53.982Z,89
2023-06-09T10:27:26.206Z,81
2023-06-09T10:29:57.112Z,89
2023-06-09T10:32:30.084Z,96
2023-06-09T10:35:00.648Z,110
2023-06-09T10:37:31.651Z,90
2023-06-09T10:40:02.040Z,102
2023-06-09T10:42:31.507Z,108
2023-06-09T10:47:47.372Z,114
2023-06-09T10:50:23.012Z,110
2023-06-09T10:52:53.885Z,100
2023-06-09T10:55:24.568Z,116
2023-06-09T10:57:56.009Z,123
2023-06-09T11:00:30.766Z,119
2023-06-09T11:02:59.863Z,112
2023-06-09T11:05:30.055Z,105
2023-06-09T11:08:00.578Z,105
2023-06-09T11:10:31.884Z,123
2023-06-09T11:13:05.279Z,111
2023-06-09T11:15:36.641Z,117
2023-06-09T11:18:07.051Z,125
2023-06-09T11:20:41.575Z,115
2023-06-09T11:23:16.813Z,112
2023-06-09T11:25:48.168Z,100
2023-06-09T11:28:18.480Z,99
2023-06-09T11:30:52.969Z,103
2023-06-09T11:33:22.020Z,105
2023-06-09T11:35:52.562Z,95
2023-06-09T11:38:26.979Z,97
2023-06-09T11:41:03.738Z,76
2023-06-09T11:43:38.713Z,88
2023-06-09T11:46:09.674Z,90
2023-06-09T11:48:44.362Z,72
2023-06-09T11:51:13.931Z,85
2023-06-09T11:53:44.600Z,85
2023-06-09T11:56:15.231Z,89
2023-06-09T11:58:52.345Z,84
2023-06-09T12:01:23.292Z,93
2023-06-09T12:03:55.073Z,89
2023-06-09T12:06:27.932Z,76
2023-06-09T12:08:56.756Z,75
2023-06-09T12:11:31.429Z,84
2023-06-09T12:14:03.698Z,76
2023-06-09T12:16:34.726Z,72
2023-06-09T12:19:05.365Z,76
2023-06-09T12:21:45.126Z,72
2023-06-09T12:24:15.816Z,72
2023-06-09T12:26:48.537Z,69
2023-06-09T12:29:19.198Z,68
2023-06-09T12:31:53.793Z,67
2023-06-09T12:34:28.628Z,64
2023-06-09T12:37:00.300Z,64
2023-06-09T12:39:31.107Z,62
2023-06-09T12:42:09.011Z,64
2023-06-09T12:44:39.282Z,64
2023-06-09T12:47:18.754Z,56
2023-06-09T12:49:53.554Z,57
2023-06-09T12:52:24.372Z,56
2023-06-09T12:55:10.008Z,60
2023-06-09T12:57:29.391Z,60
2023-06-09T13:00:11.516Z,64
2023-06-09T13:02:31.338Z,67
2023-06-09T13:05:04.400Z,60
2023-06-09T13:07:35.027Z,64
2023-06-09T13:10:05.877Z,68
2023-06-09T13:12:36.553Z,63
2023-06-09T13:15:07.775Z,60
2023-06-09T13:17:38.315Z,63
2023-06-09T13:20:09.220Z,113
2023-06-09T13:22:39.904Z,104
2023-06-09T13:25:10.508Z,61
2023-06-09T13:27:48.648Z,65
2023-06-09T13:30:26.420Z,70
2023-06-09T13:32:57.700Z,60
2023-06-09T13:35:26.894Z,60
2023-06-09T13:37:58.019Z,57
2023-06-09T13:40:30.789Z,66
2023-06-09T13:43:03.716Z,64
2023-06-09T13:45:34.807Z,60
2023-06-09T13:48:06.459Z,61
2023-06-09T13:50:37.005Z,60
2023-06-09T13:53:07.827Z,52
2023-06-09T13:55:38.536Z,63
2023-06-09T13:58:09.521Z,60
2023-06-09T14:00:40.370Z,49
2023-06-09T14:03:11.243Z,55
2023-06-09T14:05:41.817Z,56
2023-06-09T14:08:12.440Z,50
2023-06-09T14:10:45.748Z,49
2023-06-09T14:13:16.644Z,49
2023-06-09T14:15:47.288Z,55
2023-06-09T14:18:16.524Z,41
2023-06-09T14:20:47.013Z,44
2023-06-09T14:23:17.372Z,40
2023-06-09T14:25:47.719Z,40
2023-06-09T14:28:17.202Z,34
2023-06-09T14:30:48.361Z,43
2023-06-09T14:33:19.952Z,40
2023-06-09T14:35:51.437Z,39
2023-06-09T14:38:21.926Z,39
2023-06-09T14:40:54.577Z,35
2023-06-09T14:43:23.629Z,33
2023-06-09T14:45:54.291Z,32
2023-06-09T14:48:27.849Z,34
2023-06-09T14:51:04.805Z,35
2023-06-09T14:53:35.531Z,48
2023-06-09T14:56:06.377Z,35
2023-06-09T14:58:35.617Z,36
2023-06-09T15:01:05.841Z,44
2023-06-09T15:03:38.534Z,29
2023-06-09T15:06:09.412Z,29
2023-06-09T15:08:39.640Z,27
2023-06-09T15:11:10.778Z,37
2023-06-09T15:13:42.256Z,26
2023-06-09T15:16:13.157Z,27
2023-06-09T15:18:43.591Z,26
2023-06-09T15:21:14.414Z,28
2023-06-09T15:23:44.889Z,40
2023-06-09T15:26:16.397Z,31
2023-06-09T15:28:47.659Z,36
2023-06-09T15:31:20.616Z,24
2023-06-09T15:33:51.031Z,36
2023-06-09T15:36:20.511Z,33
2023-06-09T15:38:56.838Z,20
2023-06-09T15:44:04.424Z,24
2023-06-09T15:46:37.306Z,28
2023-06-09T15:49:16.840Z,20
2023-06-09T15:51:45.794Z,23
2023-06-09T15:54:15.580Z,27
2023-06-09T15:57:03.935Z,20
2023-06-09T15:59:42.941Z,20
2023-06-09T16:02:21.638Z,33
2023-06-09T16:04:52.113Z,25
2023-06-09T16:07:42.511Z,17
2023-06-09T16:10:12.935Z,25
2023-06-09T16:12:42.558Z,23
2023-06-09T16:15:12.752Z,21
2023-06-09T16:17:44.496Z,23
2023-06-09T16:20:21.232Z,16
2023-06-09T16:22:52.178Z,24
2023-06-09T16:25:22.519Z,18
2023-06-09T16:27:52.821Z,21
2023-06-09T16:30:23.377Z,17
2023-06-09T16:32:53.872Z,21
2023-06-09T16:35:24.450Z,19
2023-06-09T16:37:55.464Z,17
2023-06-09T16:40:26.489Z,19
2023-06-09T16:42:59.220Z,15
2023-06-09T16:45:30.782Z,16
2023-06-09T16:48:00.988Z,17
2023-06-09T16:50:31.232Z,15
2023-06-09T16:53:01.735Z,15
2023-06-09T16:55:32.235Z,16
2023-06-09T16:58:03.863Z,19
2023-06-09T17:00:36.533Z,23
2023-06-09T17:03:06.680Z,28
2023-06-09T17:05:39.099Z,21
2023-06-09T17:08:09.378Z,23
2023-06-09T17:10:39.819Z,26
2023-06-09T17:13:13.507Z,28
2023-06-09T17:15:44.059Z,25
2023-06-09T17:18:17.632Z,26
2023-06-09T17:20:49.705Z,28
2023-06-09T17:23:23.392Z,29
2023-06-09T17:25:53.962Z,24
2023-06-09T17:28:24.760Z,24
2023-06-09T17:30:56.989Z,23
2023-06-09T17:33:27.632Z,25
2023-06-09T17:35:57.846Z,20
2023-06-09T17:38:27.965Z,23
2023-06-09T17:40:59.636Z,24
2023-06-09T17:43:30.131Z,20
2023-06-09T17:46:00.283Z,24
2023-06-09T17:48:35.808Z,23
2023-06-09T17:51:06.785Z,22
2023-06-09T17:53:36.972Z,25
2023-06-09T17:56:10.680Z,20
2023-06-09T17:58:42.327Z,20
2023-06-09T18:01:13.180Z,21
2023-06-09T18:03:43.517Z,25
2023-06-09T18:06:15.048Z,24
2023-06-09T18:08:43.974Z,21
2023-06-09T18:11:18.798Z,16
2023-06-09T18:13:49.269Z,20
2023-06-09T18:16:21.283Z,21
2023-06-09T18:18:51.719Z,19
2023-06-09T18:21:22.542Z,21
2023-06-09T18:23:57.267Z,22
2023-06-09T18:26:32.840Z,20
2023-06-09T18:29:02.892Z,20
2023-06-09T18:31:34.661Z,23
2023-06-09T18:34:09.108Z,19
2023-06-09T18:36:43.119Z,17
2023-06-09T18:39:13.658Z,20
2023-06-09T18:41:44.079Z,23
2023-06-09T18:44:19.447Z,21
2023-06-09T18:46:49.480Z,25
2023-06-09T18:49:20.584Z,23
2023-06-09T18:51:51.014Z,24
2023-06-09T18:54:23.719Z,28
2023-06-09T18:57:02.518Z,32
2023-06-09T18:59:33.632Z,34
2023-06-09T19:02:04.150Z,32
2023-06-09T19:04:34.633Z,34
2023-06-09T19:07:05.017Z,28
2023-06-09T19:09:35.462Z,29
2023-06-09T19:12:06.850Z,37
2023-06-09T19:14:37.430Z,32
2023-06-09T19:17:08.286Z,48
2023-06-09T19:19:38.534Z,41
2023-06-09T19:22:09.035Z,46
2023-06-09T19:24:41.368Z,36
2023-06-09T19:27:11.616Z,45
2023-06-09T19:29:41.956Z,40
2023-06-09T19:32:16.225Z,32
2023-06-09T19:34:46.335Z,35
2023-06-09T19:37:26.149Z,43
2023-06-09T19:39:56.680Z,39
2023-06-09T19:42:29.998Z,45
2023-06-09T19:45:00.362Z,40
2023-06-09T19:47:30.982Z,44
2023-06-09T19:50:02.811Z,32
2023-06-09T19:52:33.576Z,36
2023-06-09T19:55:09.260Z,52
2023-06-09T19:57:42.651Z,47
2023-06-09T20:00:13.416Z,48
2023-06-09T20:02:44.080Z,38
2023-06-09T20:05:14.664Z,51
2023-06-09T20:07:46.231Z,37
2023-06-09T20:10:16.443Z,59
2023-06-09T20:12:50.213Z,36
2023-06-09T20:15:40.798Z,31
2023-06-09T20:18:19.645Z,35
2023-06-09T20:20:57.874Z,44
2023-06-09T20:23:29.033Z,48
2023-06-09T20:26:05.047Z,52
2023-06-09T20:28:38.329Z,45
2023-06-09T20:31:08.112Z,44
2023-06-09T20:33:48.771Z,44
2023-06-09T20:36:27.826Z,51
2023-06-09T20:39:09.240Z,40
2023-06-09T20:41:43.870Z,44
2023-06-09T20:44:14.295Z,44
2023-06-09T20:46:44.521Z,44
2023-06-09T20:49:15.116Z,45
2023-06-09T20:51:45.476Z,53
2023-06-09T20:54:16.834Z,46
2023-06-09T20:56:47.361Z,44
2023-06-09T20:59:17.917Z,54
2023-06-09T21:01:48.320Z,43
2023-06-09T21:04:19.355Z,52
2023-06-09T21:09:48.258Z,40
2023-06-09T21:12:20.605Z,48
2023-06-09T21:14:51.473Z,39
2023-06-09T21:17:21.872Z,41
2023-06-09T21:19:52.832Z,43
2023-06-09T21:22:22.986Z,49
2023-06-09T21:24:53.659Z,45
2023-06-09T21:27:23.879Z,44
2023-06-09T21:29:54.429Z,48
2023-06-09T21:32:24.565Z,43
2023-06-09T21:34:54.679Z,39
2023-06-09T21:37:25.186Z,44
2023-06-09T21:39:55.550Z,45
2023-06-09T21:42:26.253Z,40
2023-06-09T21:44:56.883Z,42
2023-06-09T21:47:27.451Z,41
2023-06-09T21:49:58.225Z,46
2023-06-09T21:52:28.898Z,50
2023-06-09T21:54:59.188Z,48
2023-06-09T21:57:29.899Z,40
2023-06-09T22:00:00.501Z,42
2023-06-09T22:02:31.279Z,40
2023-06-09T22:05:01.422Z,40
2023-06-09T22:07:32.108Z,45
2023-06-09T22:10:02.786Z,43
2023-06-09T22:12:37.843Z,44
2023-06-09T22:15:12.046Z,39
2023-06-09T22:17:44.990Z,40
2023-06-09T22:20:15.879Z,44
2023-06-09T22:22:46.600Z,39
2023-06-09T22:25:17.245Z,42
2023-06-09T22:27:47.587Z,42
2023-06-09T22:30:18.141Z,41
2023-06-09T22:32:48.543Z,41
2023-06-09T22:35:18.864Z,44
2023-06-09T22:37:49.428Z,42
2023-06-09T22:40:21.054Z,38
2023-06-09T22:42:51.514Z,42
2023-06-09T22:45:22.343Z,43
2023-06-09T22:47:51.164Z,44
2023-06-09T22:50:21.805Z,47
2023-06-09T22:52:53.122Z,44
2023-06-09T22:55:24.447Z,41
2023-06-09T22:57:55.336Z,42
2023-06-09T23:00:25.830Z,40
2023-06-09T23:02:56.248Z,47
2023-06-09T23:05:27.147Z,44
2023-06-09T23:07:58.177Z,44
2023-06-09T23:10:28.870Z,45
2023-06-09T23:13:01.809Z,44
2023-06-09T23:15:32.533Z,48
2023-06-09T23:18:01.968Z,51
2023-06-09T23:20:32.976Z,48
2023-06-09T23:23:04.211Z,47
2023-06-09T23:25:34.932Z,49
2023-06-09T23:28:05.776Z,48
2023-06-09T23:30:36.417Z,48
2023-06-09T23:33:07.038Z,46
2023-06-09T23:35:37.673Z,52
2023-06-09T23:38:06.984Z,52
2023-06-09T23:40:37.582Z,52
2023-06-09T23:43:08.556Z,56
2023-06-09T23:45:39.579Z,50
2023-06-09T23:48:10.533Z,53
2023-06-09T23:50:41.400Z,48
2023-06-09T23:53:13.250Z,45
2023-06-09T23:55:43.854Z,48
2023-06-09T23:58:14.728Z,48
